sensor_id;sensor_type;location;lat;lon;timestamp;P1;durP1;ratioP1;P2;durP2;ratioP2
62362;SDS011;48396;48.426;1.500;2023-05-29T00:00:47;10.43;;;4.72;;
62362;SDS011;48396;48.426;1.500;2023-05-29T00:03:12;11.98;;;4.95;;
62362;SDS011;48396;48.426;1.500;2023-05-29T00:05:38;14.20;;;5.25;;
62362;SDS011;48396;48.426;1.500;2023-05-29T00:08:04;13.55;;;5.25;;
62362;SDS011;48396;48.426;1.500;2023-05-29T00:10:30;13.50;;;4.97;;
62362;SDS011;48396;48.426;1.500;2023-05-29T00:12:56;13.95;;;5.13;;
62362;SDS011;48396;48.426;1.500;2023-05-29T00:15:22;12.25;;;4.82;;
62362;SDS011;48396;48.426;1.500;2023-05-29T00:17:48;15.35;;;5.30;;
62362;SDS011;48396;48.426;1.500;2023-05-29T00:20:14;12.95;;;5.25;;
62362;SDS011;48396;48.426;1.500;2023-05-29T00:22:40;14.55;;;5.20;;
62362;SDS011;48396;48.426;1.500;2023-05-29T00:25:06;11.55;;;4.80;;
62362;SDS011;48396;48.426;1.500;2023-05-29T00:27:32;12.80;;;5.38;;
62362;SDS011;48396;48.426;1.500;2023-05-29T00:29:59;14.55;;;5.55;;
62362;SDS011;48396;48.426;1.500;2023-05-29T00:32:25;12.73;;;5.25;;
62362;SDS011;48396;48.426;1.500;2023-05-29T00:34:52;15.45;;;5.32;;
62362;SDS011;48396;48.426;1.500;2023-05-29T00:37:18;15.18;;;5.40;;
62362;SDS011;48396;48.426;1.500;2023-05-29T00:39:46;12.88;;;5.57;;
62362;SDS011;48396;48.426;1.500;2023-05-29T00:42:12;12.35;;;5.70;;
62362;SDS011;48396;48.426;1.500;2023-05-29T00:44:38;11.52;;;4.90;;
62362;SDS011;48396;48.426;1.500;2023-05-29T00:47:03;13.93;;;5.28;;
62362;SDS011;48396;48.426;1.500;2023-05-29T00:49:29;13.70;;;5.85;;
62362;SDS011;48396;48.426;1.500;2023-05-29T00:51:55;15.57;;;5.78;;
62362;SDS011;48396;48.426;1.500;2023-05-29T00:54:21;13.77;;;5.80;;
62362;SDS011;48396;48.426;1.500;2023-05-29T00:56:51;16.48;;;5.90;;
62362;SDS011;48396;48.426;1.500;2023-05-29T00:59:17;12.43;;;5.60;;
62362;SDS011;48396;48.426;1.500;2023-05-29T01:01:46;15.88;;;6.03;;
62362;SDS011;48396;48.426;1.500;2023-05-29T01:04:13;14.93;;;5.63;;
62362;SDS011;48396;48.426;1.500;2023-05-29T01:06:41;12.52;;;5.22;;
62362;SDS011;48396;48.426;1.500;2023-05-29T01:09:07;16.00;;;5.60;;
62362;SDS011;48396;48.426;1.500;2023-05-29T01:13:59;16.77;;;5.70;;
62362;SDS011;48396;48.426;1.500;2023-05-29T01:22:08;17.65;;;5.93;;
62362;SDS011;48396;48.426;1.500;2023-05-29T01:24:50;15.93;;;5.93;;
62362;SDS011;48396;48.426;1.500;2023-05-29T01:27:17;12.63;;;5.28;;
62362;SDS011;48396;48.426;1.500;2023-05-29T01:29:44;13.95;;;5.68;;
62362;SDS011;48396;48.426;1.500;2023-05-29T01:32:12;16.95;;;5.88;;
62362;SDS011;48396;48.426;1.500;2023-05-29T01:34:37;14.27;;;5.40;;
62362;SDS011;48396;48.426;1.500;2023-05-29T01:37:03;14.00;;;5.10;;
62362;SDS011;48396;48.426;1.500;2023-05-29T01:39:29;12.13;;;5.10;;
62362;SDS011;48396;48.426;1.500;2023-05-29T01:41:57;15.68;;;5.80;;
62362;SDS011;48396;48.426;1.500;2023-05-29T01:44:24;12.88;;;5.35;;
62362;SDS011;48396;48.426;1.500;2023-05-29T01:46:50;14.85;;;5.30;;
62362;SDS011;48396;48.426;1.500;2023-05-29T01:49:16;14.77;;;5.45;;
62362;SDS011;48396;48.426;1.500;2023-05-29T01:51:43;12.43;;;5.40;;
62362;SDS011;48396;48.426;1.500;2023-05-29T01:54:09;16.60;;;6.13;;
62362;SDS011;48396;48.426;1.500;2023-05-29T01:56:34;15.13;;;5.97;;
62362;SDS011;48396;48.426;1.500;2023-05-29T01:59:01;14.45;;;5.20;;
62362;SDS011;48396;48.426;1.500;2023-05-29T02:01:28;13.48;;;5.00;;
62362;SDS011;48396;48.426;1.500;2023-05-29T02:03:53;12.13;;;5.35;;
62362;SDS011;48396;48.426;1.500;2023-05-29T02:06:19;12.02;;;5.30;;
62362;SDS011;48396;48.426;1.500;2023-05-29T02:08:45;12.63;;;4.88;;
62362;SDS011;48396;48.426;1.500;2023-05-29T02:11:11;15.50;;;5.75;;
62362;SDS011;48396;48.426;1.500;2023-05-29T02:13:37;16.33;;;6.10;;
62362;SDS011;48396;48.426;1.500;2023-05-29T02:16:03;13.82;;;5.38;;
62362;SDS011;48396;48.426;1.500;2023-05-29T02:18:28;15.70;;;5.35;;
62362;SDS011;48396;48.426;1.500;2023-05-29T02:20:54;13.38;;;5.78;;
62362;SDS011;48396;48.426;1.500;2023-05-29T02:23:20;12.90;;;4.70;;
62362;SDS011;48396;48.426;1.500;2023-05-29T02:25:46;12.57;;;5.22;;
62362;SDS011;48396;48.426;1.500;2023-05-29T02:28:11;13.30;;;5.20;;
62362;SDS011;48396;48.426;1.500;2023-05-29T02:30:37;13.70;;;5.05;;
62362;SDS011;48396;48.426;1.500;2023-05-29T02:33:03;13.45;;;5.60;;
62362;SDS011;48396;48.426;1.500;2023-05-29T02:35:28;13.73;;;5.05;;
62362;SDS011;48396;48.426;1.500;2023-05-29T02:37:54;13.77;;;4.93;;
62362;SDS011;48396;48.426;1.500;2023-05-29T02:40:19;13.40;;;5.43;;
62362;SDS011;48396;48.426;1.500;2023-05-29T02:42:46;16.98;;;5.30;;
62362;SDS011;48396;48.426;1.500;2023-05-29T02:45:12;12.52;;;4.85;;
62362;SDS011;48396;48.426;1.500;2023-05-29T02:47:37;15.88;;;5.53;;
62362;SDS011;48396;48.426;1.500;2023-05-29T02:50:03;15.48;;;5.45;;
62362;SDS011;48396;48.426;1.500;2023-05-29T02:52:31;16.65;;;5.35;;
62362;SDS011;48396;48.426;1.500;2023-05-29T02:54:57;14.15;;;5.10;;
62362;SDS011;48396;48.426;1.500;2023-05-29T02:57:23;13.80;;;5.15;;
62362;SDS011;48396;48.426;1.500;2023-05-29T02:59:49;12.02;;;4.88;;
62362;SDS011;48396;48.426;1.500;2023-05-29T03:02:16;13.07;;;4.97;;
62362;SDS011;48396;48.426;1.500;2023-05-29T03:04:42;15.35;;;5.68;;
62362;SDS011;48396;48.426;1.500;2023-05-29T03:07:09;12.65;;;4.80;;
62362;SDS011;48396;48.426;1.500;2023-05-29T03:09:34;11.88;;;4.97;;
62362;SDS011;48396;48.426;1.500;2023-05-29T03:12:00;14.32;;;5.25;;
62362;SDS011;48396;48.426;1.500;2023-05-29T03:14:26;14.68;;;5.32;;
62362;SDS011;48396;48.426;1.500;2023-05-29T03:16:52;14.75;;;5.68;;
62362;SDS011;48396;48.426;1.500;2023-05-29T03:19:18;13.43;;;4.80;;
62362;SDS011;48396;48.426;1.500;2023-05-29T03:21:44;18.02;;;5.88;;
62362;SDS011;48396;48.426;1.500;2023-05-29T03:24:10;13.93;;;4.78;;
62362;SDS011;48396;48.426;1.500;2023-05-29T03:26:36;16.60;;;5.32;;
62362;SDS011;48396;48.426;1.500;2023-05-29T03:29:02;13.02;;;5.28;;
62362;SDS011;48396;48.426;1.500;2023-05-29T03:31:27;13.73;;;5.53;;
62362;SDS011;48396;48.426;1.500;2023-05-29T03:33:53;11.85;;;4.95;;
62362;SDS011;48396;48.426;1.500;2023-05-29T03:36:18;14.82;;;5.15;;
62362;SDS011;48396;48.426;1.500;2023-05-29T03:38:44;15.68;;;5.10;;
62362;SDS011;48396;48.426;1.500;2023-05-29T03:41:10;14.70;;;5.50;;
62362;SDS011;48396;48.426;1.500;2023-05-29T03:43:35;13.32;;;4.75;;
62362;SDS011;48396;48.426;1.500;2023-05-29T03:46:02;13.43;;;5.40;;
62362;SDS011;48396;48.426;1.500;2023-05-29T03:48:27;15.35;;;5.35;;
62362;SDS011;48396;48.426;1.500;2023-05-29T03:50:53;10.23;;;4.93;;
62362;SDS011;48396;48.426;1.500;2023-05-29T03:53:18;10.70;;;4.60;;
62362;SDS011;48396;48.426;1.500;2023-05-29T03:55:44;14.10;;;5.60;;
62362;SDS011;48396;48.426;1.500;2023-05-29T03:58:10;15.85;;;5.40;;
62362;SDS011;48396;48.426;1.500;2023-05-29T04:00:37;15.52;;;5.63;;
62362;SDS011;48396;48.426;1.500;2023-05-29T04:03:03;12.95;;;5.13;;
62362;SDS011;48396;48.426;1.500;2023-05-29T04:05:29;13.60;;;5.10;;
62362;SDS011;48396;48.426;1.500;2023-05-29T04:07:55;13.63;;;5.50;;
62362;SDS011;48396;48.426;1.500;2023-05-29T04:10:21;11.48;;;5.13;;
62362;SDS011;48396;48.426;1.500;2023-05-29T04:12:47;14.13;;;5.53;;
62362;SDS011;48396;48.426;1.500;2023-05-29T04:15:12;13.18;;;5.25;;
62362;SDS011;48396;48.426;1.500;2023-05-29T04:17:38;15.88;;;5.18;;
62362;SDS011;48396;48.426;1.500;2023-05-29T04:20:04;11.30;;;5.00;;
62362;SDS011;48396;48.426;1.500;2023-05-29T04:22:34;11.65;;;4.72;;
62362;SDS011;48396;48.426;1.500;2023-05-29T04:25:03;17.02;;;5.72;;
62362;SDS011;48396;48.426;1.500;2023-05-29T04:27:30;15.13;;;5.55;;
62362;SDS011;48396;48.426;1.500;2023-05-29T04:29:57;14.95;;;5.57;;
62362;SDS011;48396;48.426;1.500;2023-05-29T04:32:23;14.68;;;5.60;;
62362;SDS011;48396;48.426;1.500;2023-05-29T04:34:48;14.93;;;5.28;;
62362;SDS011;48396;48.426;1.500;2023-05-29T04:37:16;15.15;;;5.97;;
62362;SDS011;48396;48.426;1.500;2023-05-29T04:39:42;12.32;;;4.80;;
62362;SDS011;48396;48.426;1.500;2023-05-29T04:42:07;12.60;;;5.45;;
62362;SDS011;48396;48.426;1.500;2023-05-29T04:44:33;15.10;;;5.55;;
62362;SDS011;48396;48.426;1.500;2023-05-29T04:46:58;16.27;;;5.60;;
62362;SDS011;48396;48.426;1.500;2023-05-29T04:49:28;18.85;;;5.93;;
62362;SDS011;48396;48.426;1.500;2023-05-29T04:51:55;13.18;;;5.43;;
62362;SDS011;48396;48.426;1.500;2023-05-29T04:54:21;14.65;;;5.65;;
62362;SDS011;48396;48.426;1.500;2023-05-29T04:56:48;12.80;;;5.45;;
62362;SDS011;48396;48.426;1.500;2023-05-29T04:59:13;13.90;;;5.35;;
62362;SDS011;48396;48.426;1.500;2023-05-29T05:01:39;15.10;;;5.65;;
62362;SDS011;48396;48.426;1.500;2023-05-29T05:04:08;15.02;;;5.90;;
62362;SDS011;48396;48.426;1.500;2023-05-29T05:06:33;16.35;;;5.78;;
62362;SDS011;48396;48.426;1.500;2023-05-29T05:08:59;13.77;;;5.65;;
62362;SDS011;48396;48.426;1.500;2023-05-29T05:11:25;16.92;;;5.82;;
62362;SDS011;48396;48.426;1.500;2023-05-29T05:13:51;15.55;;;5.72;;
62362;SDS011;48396;48.426;1.500;2023-05-29T05:16:17;18.15;;;6.30;;
62362;SDS011;48396;48.426;1.500;2023-05-29T05:18:43;17.52;;;6.10;;
62362;SDS011;48396;48.426;1.500;2023-05-29T05:21:09;13.02;;;5.10;;
62362;SDS011;48396;48.426;1.500;2023-05-29T05:23:35;14.35;;;5.80;;
62362;SDS011;48396;48.426;1.500;2023-05-29T05:26:01;17.60;;;6.20;;
62362;SDS011;48396;48.426;1.500;2023-05-29T05:28:26;13.95;;;6.15;;
62362;SDS011;48396;48.426;1.500;2023-05-29T05:30:52;15.90;;;5.68;;
62362;SDS011;48396;48.426;1.500;2023-05-29T05:33:18;16.35;;;5.88;;
62362;SDS011;48396;48.426;1.500;2023-05-29T05:35:43;17.48;;;5.72;;
62362;SDS011;48396;48.426;1.500;2023-05-29T05:38:09;14.38;;;6.13;;
62362;SDS011;48396;48.426;1.500;2023-05-29T05:40:34;16.15;;;6.32;;
62362;SDS011;48396;48.426;1.500;2023-05-29T05:43:00;13.55;;;5.40;;
62362;SDS011;48396;48.426;1.500;2023-05-29T05:45:25;16.20;;;5.57;;
62362;SDS011;48396;48.426;1.500;2023-05-29T05:47:51;14.10;;;5.93;;
62362;SDS011;48396;48.426;1.500;2023-05-29T05:50:17;14.63;;;5.68;;
62362;SDS011;48396;48.426;1.500;2023-05-29T05:52:42;14.07;;;5.22;;
62362;SDS011;48396;48.426;1.500;2023-05-29T05:55:08;16.35;;;5.68;;
62362;SDS011;48396;48.426;1.500;2023-05-29T05:57:34;16.55;;;5.95;;
62362;SDS011;48396;48.426;1.500;2023-05-29T06:00:04;13.95;;;5.93;;
62362;SDS011;48396;48.426;1.500;2023-05-29T06:02:36;17.13;;;6.25;;
62362;SDS011;48396;48.426;1.500;2023-05-29T06:05:02;14.18;;;5.78;;
62362;SDS011;48396;48.426;1.500;2023-05-29T06:07:28;14.07;;;5.70;;
62362;SDS011;48396;48.426;1.500;2023-05-29T06:09:55;13.15;;;5.97;;
62362;SDS011;48396;48.426;1.500;2023-05-29T06:12:20;13.85;;;5.88;;
62362;SDS011;48396;48.426;1.500;2023-05-29T06:14:46;15.43;;;6.65;;
62362;SDS011;48396;48.426;1.500;2023-05-29T06:17:11;19.70;;;7.05;;
62362;SDS011;48396;48.426;1.500;2023-05-29T06:19:38;15.57;;;6.32;;
62362;SDS011;48396;48.426;1.500;2023-05-29T06:22:03;13.93;;;5.75;;
62362;SDS011;48396;48.426;1.500;2023-05-29T06:24:29;14.82;;;5.78;;
62362;SDS011;48396;48.426;1.500;2023-05-29T06:26:55;13.52;;;5.82;;
62362;SDS011;48396;48.426;1.500;2023-05-29T06:29:20;14.35;;;5.78;;
62362;SDS011;48396;48.426;1.500;2023-05-29T06:31:46;16.05;;;6.50;;
62362;SDS011;48396;48.426;1.500;2023-05-29T06:34:11;16.33;;;6.40;;
62362;SDS011;48396;48.426;1.500;2023-05-29T06:36:37;16.15;;;6.70;;
62362;SDS011;48396;48.426;1.500;2023-05-29T06:39:03;15.57;;;6.00;;
62362;SDS011;48396;48.426;1.500;2023-05-29T06:41:29;14.15;;;6.10;;
62362;SDS011;48396;48.426;1.500;2023-05-29T06:43:55;14.13;;;6.28;;
62362;SDS011;48396;48.426;1.500;2023-05-29T06:46:20;18.52;;;6.25;;
62362;SDS011;48396;48.426;1.500;2023-05-29T06:48:46;18.50;;;6.90;;
62362;SDS011;48396;48.426;1.500;2023-05-29T06:51:11;14.65;;;5.78;;
62362;SDS011;48396;48.426;1.500;2023-05-29T06:53:37;16.73;;;6.30;;
62362;SDS011;48396;48.426;1.500;2023-05-29T06:56:06;16.40;;;5.85;;
62362;SDS011;48396;48.426;1.500;2023-05-29T06:58:32;14.68;;;6.85;;
62362;SDS011;48396;48.426;1.500;2023-05-29T07:00:58;15.40;;;6.15;;
62362;SDS011;48396;48.426;1.500;2023-05-29T07:03:27;15.18;;;5.72;;
62362;SDS011;48396;48.426;1.500;2023-05-29T07:05:53;16.95;;;6.40;;
62362;SDS011;48396;48.426;1.500;2023-05-29T07:08:19;16.02;;;5.93;;
62362;SDS011;48396;48.426;1.500;2023-05-29T07:10:45;17.45;;;7.25;;
62362;SDS011;48396;48.426;1.500;2023-05-29T07:13:17;18.27;;;7.35;;
62362;SDS011;48396;48.426;1.500;2023-05-29T07:15:43;18.98;;;7.53;;
62362;SDS011;48396;48.426;1.500;2023-05-29T07:18:09;14.85;;;6.60;;
62362;SDS011;48396;48.426;1.500;2023-05-29T07:20:35;16.42;;;7.03;;
62362;SDS011;48396;48.426;1.500;2023-05-29T07:23:02;17.05;;;6.95;;
62362;SDS011;48396;48.426;1.500;2023-05-29T07:25:28;14.35;;;5.95;;
62362;SDS011;48396;48.426;1.500;2023-05-29T07:27:54;13.88;;;6.00;;
62362;SDS011;48396;48.426;1.500;2023-05-29T07:30:20;15.85;;;6.57;;
62362;SDS011;48396;48.426;1.500;2023-05-29T07:32:46;13.63;;;6.20;;
62362;SDS011;48396;48.426;1.500;2023-05-29T07:35:11;15.32;;;5.97;;
62362;SDS011;48396;48.426;1.500;2023-05-29T07:37:37;14.88;;;6.65;;
62362;SDS011;48396;48.426;1.500;2023-05-29T07:40:02;19.10;;;6.93;;
62362;SDS011;48396;48.426;1.500;2023-05-29T07:42:32;15.63;;;6.50;;
62362;SDS011;48396;48.426;1.500;2023-05-29T07:44:58;13.48;;;6.20;;
62362;SDS011;48396;48.426;1.500;2023-05-29T07:47:23;17.00;;;7.07;;
62362;SDS011;48396;48.426;1.500;2023-05-29T07:49:49;15.75;;;6.47;;
62362;SDS011;48396;48.426;1.500;2023-05-29T07:52:15;14.95;;;6.30;;
62362;SDS011;48396;48.426;1.500;2023-05-29T07:54:41;17.25;;;6.72;;
62362;SDS011;48396;48.426;1.500;2023-05-29T07:57:06;13.02;;;6.45;;
62362;SDS011;48396;48.426;1.500;2023-05-29T07:59:39;14.90;;;6.47;;
62362;SDS011;48396;48.426;1.500;2023-05-29T08:02:06;15.80;;;6.20;;
62362;SDS011;48396;48.426;1.500;2023-05-29T08:04:32;16.77;;;6.43;;
62362;SDS011;48396;48.426;1.500;2023-05-29T08:06:58;15.20;;;5.95;;
62362;SDS011;48396;48.426;1.500;2023-05-29T08:09:25;14.77;;;6.32;;
62362;SDS011;48396;48.426;1.500;2023-05-29T08:11:50;14.98;;;5.90;;
62362;SDS011;48396;48.426;1.500;2023-05-29T08:14:16;12.88;;;5.78;;
62362;SDS011;48396;48.426;1.500;2023-05-29T08:16:42;14.63;;;6.13;;
62362;SDS011;48396;48.426;1.500;2023-05-29T08:19:07;15.63;;;6.15;;
62362;SDS011;48396;48.426;1.500;2023-05-29T08:21:33;18.08;;;6.63;;
62362;SDS011;48396;48.426;1.500;2023-05-29T08:23:59;12.63;;;5.88;;
62362;SDS011;48396;48.426;1.500;2023-05-29T08:26:24;14.68;;;5.70;;
62362;SDS011;48396;48.426;1.500;2023-05-29T08:28:51;12.93;;;5.72;;
62362;SDS011;48396;48.426;1.500;2023-05-29T08:31:16;16.55;;;6.57;;
62362;SDS011;48396;48.426;1.500;2023-05-29T08:33:42;14.80;;;6.20;;
62362;SDS011;48396;48.426;1.500;2023-05-29T08:36:08;12.07;;;5.45;;
62362;SDS011;48396;48.426;1.500;2023-05-29T08:38:34;13.52;;;6.13;;
62362;SDS011;48396;48.426;1.500;2023-05-29T08:41:01;17.10;;;6.70;;
62362;SDS011;48396;48.426;1.500;2023-05-29T08:43:31;14.90;;;6.03;;
62362;SDS011;48396;48.426;1.500;2023-05-29T08:46:01;13.43;;;5.78;;
62362;SDS011;48396;48.426;1.500;2023-05-29T08:48:28;16.20;;;6.28;;
62362;SDS011;48396;48.426;1.500;2023-05-29T08:50:56;11.10;;;5.35;;
62362;SDS011;48396;48.426;1.500;2023-05-29T08:53:23;16.85;;;7.20;;
62362;SDS011;48396;48.426;1.500;2023-05-29T08:55:50;17.40;;;5.97;;
62362;SDS011;48396;48.426;1.500;2023-05-29T08:58:17;12.13;;;5.70;;
62362;SDS011;48396;48.426;1.500;2023-05-29T09:00:47;13.73;;;7.63;;
62362;SDS011;48396;48.426;1.500;2023-05-29T09:03:14;16.08;;;7.13;;
62362;SDS011;48396;48.426;1.500;2023-05-29T09:05:40;10.27;;;5.10;;
62362;SDS011;48396;48.426;1.500;2023-05-29T09:08:06;15.23;;;6.30;;
62362;SDS011;48396;48.426;1.500;2023-05-29T09:10:34;14.23;;;5.95;;
62362;SDS011;48396;48.426;1.500;2023-05-29T09:13:01;12.77;;;5.68;;
62362;SDS011;48396;48.426;1.500;2023-05-29T09:15:27;14.30;;;5.88;;
62362;SDS011;48396;48.426;1.500;2023-05-29T09:18:10;11.95;;;5.40;;
62362;SDS011;48396;48.426;1.500;2023-05-29T09:20:36;12.82;;;5.57;;
62362;SDS011;48396;48.426;1.500;2023-05-29T09:23:03;14.40;;;5.57;;
62362;SDS011;48396;48.426;1.500;2023-05-29T09:25:30;10.15;;;4.70;;
62362;SDS011;48396;48.426;1.500;2023-05-29T09:28:04;14.23;;;5.47;;
62362;SDS011;48396;48.426;1.500;2023-05-29T09:33:03;10.35;;;4.55;;
62362;SDS011;48396;48.426;1.500;2023-05-29T09:35:40;12.57;;;5.57;;
62362;SDS011;48396;48.426;1.500;2023-05-29T09:38:10;10.23;;;5.00;;
62362;SDS011;48396;48.426;1.500;2023-05-29T09:40:37;8.20;;;4.43;;
62362;SDS011;48396;48.426;1.500;2023-05-29T09:43:11;10.57;;;4.75;;
62362;SDS011;48396;48.426;1.500;2023-05-29T09:45:42;12.13;;;5.32;;
62362;SDS011;48396;48.426;1.500;2023-05-29T09:48:12;15.05;;;5.28;;
62362;SDS011;48396;48.426;1.500;2023-05-29T09:50:39;11.95;;;5.40;;
62362;SDS011;48396;48.426;1.500;2023-05-29T09:53:16;10.95;;;5.28;;
62362;SDS011;48396;48.426;1.500;2023-05-29T09:55:49;13.43;;;5.95;;
62362;SDS011;48396;48.426;1.500;2023-05-29T09:58:17;15.07;;;6.50;;
62362;SDS011;48396;48.426;1.500;2023-05-29T10:00:43;11.90;;;6.05;;
62362;SDS011;48396;48.426;1.500;2023-05-29T10:03:10;14.27;;;5.75;;
62362;SDS011;48396;48.426;1.500;2023-05-29T10:05:46;11.88;;;5.82;;
62362;SDS011;48396;48.426;1.500;2023-05-29T10:08:15;12.32;;;5.18;;
62362;SDS011;48396;48.426;1.500;2023-05-29T10:10:44;10.82;;;5.28;;
62362;SDS011;48396;48.426;1.500;2023-05-29T10:13:20;11.43;;;5.22;;
62362;SDS011;48396;48.426;1.500;2023-05-29T10:15:49;12.07;;;4.63;;
62362;SDS011;48396;48.426;1.500;2023-05-29T10:18:20;12.32;;;5.95;;
62362;SDS011;48396;48.426;1.500;2023-05-29T10:20:49;13.00;;;5.45;;
62362;SDS011;48396;48.426;1.500;2023-05-29T10:23:16;13.52;;;5.75;;
62362;SDS011;48396;48.426;1.500;2023-05-29T10:25:47;13.63;;;6.40;;
62362;SDS011;48396;48.426;1.500;2023-05-29T10:28:16;13.13;;;6.45;;
62362;SDS011;48396;48.426;1.500;2023-05-29T10:30:43;14.50;;;5.90;;
62362;SDS011;48396;48.426;1.500;2023-05-29T10:33:26;15.27;;;6.20;;
62362;SDS011;48396;48.426;1.500;2023-05-29T10:36:13;13.88;;;6.18;;
62362;SDS011;48396;48.426;1.500;2023-05-29T10:38:44;13.57;;;5.82;;
62362;SDS011;48396;48.426;1.500;2023-05-29T10:43:53;15.80;;;7.35;;
62362;SDS011;48396;48.426;1.500;2023-05-29T10:46:21;17.45;;;8.43;;
62362;SDS011;48396;48.426;1.500;2023-05-29T10:49:15;12.38;;;6.53;;
62362;SDS011;48396;48.426;1.500;2023-05-29T10:51:44;12.70;;;6.50;;
62362;SDS011;48396;48.426;1.500;2023-05-29T10:54:10;12.80;;;6.00;;
62362;SDS011;48396;48.426;1.500;2023-05-29T10:56:36;10.57;;;5.18;;
62362;SDS011;48396;48.426;1.500;2023-05-29T10:59:02;13.20;;;6.38;;
62362;SDS011;48396;48.426;1.500;2023-05-29T11:01:28;12.18;;;5.97;;
62362;SDS011;48396;48.426;1.500;2023-05-29T11:06:42;19.67;;;10.50;;
62362;SDS011;48396;48.426;1.500;2023-05-29T11:15:10;12.23;;;6.00;;
62362;SDS011;48396;48.426;1.500;2023-05-29T11:20:36;10.55;;;5.40;;
62362;SDS011;48396;48.426;1.500;2023-05-29T11:23:06;14.50;;;5.68;;
62362;SDS011;48396;48.426;1.500;2023-05-29T11:25:36;10.48;;;5.35;;
62362;SDS011;48396;48.426;1.500;2023-05-29T11:28:03;8.18;;;4.57;;
62362;SDS011;48396;48.426;1.500;2023-05-29T11:30:40;7.77;;;4.63;;
62362;SDS011;48396;48.426;1.500;2023-05-29T11:33:25;9.18;;;4.70;;
62362;SDS011;48396;48.426;1.500;2023-05-29T11:35:59;12.38;;;5.18;;
62362;SDS011;48396;48.426;1.500;2023-05-29T11:38:26;11.90;;;5.28;;
62362;SDS011;48396;48.426;1.500;2023-05-29T11:40:55;11.55;;;5.20;;
62362;SDS011;48396;48.426;1.500;2023-05-29T11:43:24;12.67;;;5.43;;
62362;SDS011;48396;48.426;1.500;2023-05-29T11:45:50;12.23;;;5.80;;
62362;SDS011;48396;48.426;1.500;2023-05-29T11:48:16;10.60;;;5.32;;
62362;SDS011;48396;48.426;1.500;2023-05-29T11:50:41;12.60;;;5.57;;
62362;SDS011;48396;48.426;1.500;2023-05-29T11:53:08;9.77;;;4.90;;
62362;SDS011;48396;48.426;1.500;2023-05-29T11:55:34;10.10;;;5.03;;
62362;SDS011;48396;48.426;1.500;2023-05-29T11:58:02;9.88;;;5.22;;
62362;SDS011;48396;48.426;1.500;2023-05-29T12:00:35;11.50;;;5.07;;
62362;SDS011;48396;48.426;1.500;2023-05-29T12:03:02;9.88;;;4.93;;
62362;SDS011;48396;48.426;1.500;2023-05-29T12:05:48;10.98;;;5.22;;
62362;SDS011;48396;48.426;1.500;2023-05-29T12:08:14;11.98;;;5.43;;
62362;SDS011;48396;48.426;1.500;2023-05-29T12:10:46;10.43;;;5.50;;
62362;SDS011;48396;48.426;1.500;2023-05-29T12:13:13;11.57;;;6.10;;
62362;SDS011;48396;48.426;1.500;2023-05-29T12:15:42;12.23;;;5.97;;
62362;SDS011;48396;48.426;1.500;2023-05-29T12:18:08;10.75;;;5.10;;
62362;SDS011;48396;48.426;1.500;2023-05-29T12:20:34;10.38;;;5.40;;
62362;SDS011;48396;48.426;1.500;2023-05-29T12:23:01;12.77;;;5.22;;
62362;SDS011;48396;48.426;1.500;2023-05-29T12:25:27;9.00;;;5.03;;
62362;SDS011;48396;48.426;1.500;2023-05-29T12:27:54;8.20;;;4.65;;
62362;SDS011;48396;48.426;1.500;2023-05-29T12:30:22;13.68;;;5.57;;
62362;SDS011;48396;48.426;1.500;2023-05-29T12:32:49;7.75;;;4.50;;
62362;SDS011;48396;48.426;1.500;2023-05-29T12:35:24;13.40;;;5.10;;
62362;SDS011;48396;48.426;1.500;2023-05-29T12:38:04;11.60;;;5.22;;
62362;SDS011;48396;48.426;1.500;2023-05-29T12:40:33;7.25;;;4.35;;
62362;SDS011;48396;48.426;1.500;2023-05-29T12:43:03;10.00;;;5.03;;
62362;SDS011;48396;48.426;1.500;2023-05-29T12:45:35;11.23;;;4.72;;
62362;SDS011;48396;48.426;1.500;2023-05-29T12:48:02;10.10;;;4.50;;
62362;SDS011;48396;48.426;1.500;2023-05-29T12:53:16;8.25;;;4.25;;
62362;SDS011;48396;48.426;1.500;2023-05-29T12:55:42;12.30;;;4.70;;
62362;SDS011;48396;48.426;1.500;2023-05-29T12:58:10;9.93;;;4.40;;
62362;SDS011;48396;48.426;1.500;2023-05-29T13:00:41;11.57;;;4.57;;
62362;SDS011;48396;48.426;1.500;2023-05-29T13:03:08;8.93;;;4.28;;
62362;SDS011;48396;48.426;1.500;2023-05-29T13:05:34;9.52;;;4.38;;
62362;SDS011;48396;48.426;1.500;2023-05-29T13:08:00;8.65;;;4.35;;
62362;SDS011;48396;48.426;1.500;2023-05-29T13:10:26;8.63;;;4.18;;
62362;SDS011;48396;48.426;1.500;2023-05-29T13:12:53;9.18;;;4.05;;
62362;SDS011;48396;48.426;1.500;2023-05-29T13:15:23;9.13;;;4.28;;
62362;SDS011;48396;48.426;1.500;2023-05-29T13:17:49;9.75;;;4.43;;
62362;SDS011;48396;48.426;1.500;2023-05-29T13:20:15;6.15;;;3.80;;
62362;SDS011;48396;48.426;1.500;2023-05-29T13:22:42;11.75;;;4.45;;
62362;SDS011;48396;48.426;1.500;2023-05-29T13:25:09;8.80;;;4.30;;
62362;SDS011;48396;48.426;1.500;2023-05-29T13:27:37;8.07;;;4.07;;
62362;SDS011;48396;48.426;1.500;2023-05-29T13:30:07;9.40;;;4.10;;
62362;SDS011;48396;48.426;1.500;2023-05-29T13:32:33;10.20;;;4.22;;
62362;SDS011;48396;48.426;1.500;2023-05-29T13:34:59;7.32;;;3.88;;
62362;SDS011;48396;48.426;1.500;2023-05-29T13:37:25;8.38;;;3.60;;
62362;SDS011;48396;48.426;1.500;2023-05-29T13:39:52;9.00;;;3.70;;
62362;SDS011;48396;48.426;1.500;2023-05-29T13:42:18;8.02;;;3.70;;
62362;SDS011;48396;48.426;1.500;2023-05-29T13:44:45;8.95;;;4.32;;
62362;SDS011;48396;48.426;1.500;2023-05-29T13:47:11;7.82;;;4.10;;
62362;SDS011;48396;48.426;1.500;2023-05-29T13:49:36;7.43;;;3.80;;
62362;SDS011;48396;48.426;1.500;2023-05-29T13:52:02;7.55;;;3.47;;
62362;SDS011;48396;48.426;1.500;2023-05-29T13:54:28;7.60;;;3.80;;
62362;SDS011;48396;48.426;1.500;2023-05-29T13:57:03;8.52;;;3.85;;
62362;SDS011;48396;48.426;1.500;2023-05-29T13:59:31;8.33;;;3.67;;
62362;SDS011;48396;48.426;1.500;2023-05-29T14:02:00;7.80;;;3.55;;
62362;SDS011;48396;48.426;1.500;2023-05-29T14:04:28;5.53;;;3.40;;
62362;SDS011;48396;48.426;1.500;2023-05-29T14:06:54;9.50;;;3.80;;
62362;SDS011;48396;48.426;1.500;2023-05-29T14:09:21;10.18;;;3.92;;
62362;SDS011;48396;48.426;1.500;2023-05-29T14:11:53;7.03;;;3.80;;
62362;SDS011;48396;48.426;1.500;2023-05-29T14:14:19;7.85;;;3.67;;
62362;SDS011;48396;48.426;1.500;2023-05-29T14:16:45;8.88;;;3.45;;
62362;SDS011;48396;48.426;1.500;2023-05-29T14:19:11;8.38;;;4.22;;
62362;SDS011;48396;48.426;1.500;2023-05-29T14:21:36;6.63;;;3.60;;
62362;SDS011;48396;48.426;1.500;2023-05-29T14:24:02;7.93;;;3.50;;
62362;SDS011;48396;48.426;1.500;2023-05-29T14:26:28;7.82;;;3.30;;
62362;SDS011;48396;48.426;1.500;2023-05-29T14:28:53;7.85;;;3.50;;
62362;SDS011;48396;48.426;1.500;2023-05-29T14:31:19;6.65;;;3.30;;
62362;SDS011;48396;48.426;1.500;2023-05-29T14:33:46;10.73;;;3.45;;
62362;SDS011;48396;48.426;1.500;2023-05-29T14:36:12;5.65;;;3.55;;
62362;SDS011;48396;48.426;1.500;2023-05-29T14:38:37;9.35;;;3.72;;
62362;SDS011;48396;48.426;1.500;2023-05-29T14:41:03;6.93;;;3.35;;
62362;SDS011;48396;48.426;1.500;2023-05-29T14:43:29;6.70;;;3.33;;
62362;SDS011;48396;48.426;1.500;2023-05-29T14:45:54;11.07;;;3.65;;
62362;SDS011;48396;48.426;1.500;2023-05-29T14:48:20;9.20;;;3.80;;
62362;SDS011;48396;48.426;1.500;2023-05-29T14:50:46;10.05;;;3.67;;
62362;SDS011;48396;48.426;1.500;2023-05-29T14:53:11;7.55;;;3.50;;
62362;SDS011;48396;48.426;1.500;2023-05-29T14:55:37;7.18;;;3.28;;
62362;SDS011;48396;48.426;1.500;2023-05-29T14:58:04;8.60;;;3.70;;
62362;SDS011;48396;48.426;1.500;2023-05-29T15:00:30;10.02;;;3.67;;
62362;SDS011;48396;48.426;1.500;2023-05-29T15:02:56;9.30;;;3.63;;